CheckWX is a tool to help pilots better visualize weather data.  It is not intended as a substitute for an official pre-flight weather briefing.

01:57:21 UTC

OIAA METAR
Abadan Airport
Abadan, Iran
Current

57 mins ago

OIAA 190100Z 16002KT CAVOK 29/17 Q1001
Observed
Aug-19 @ 01:00 UTC
Wind
  • 160° at 2 KTS
Visibility
10,000+ meters
Flight Rules
VFR
Cloud Levels
  • Clear skies
Temperature
29°C / 84°F
Dewpoint
17°C / 63°F
Heat Index
29°C / 85°F
Humidity
48%
Altimeter
29.56" Hg
Pressure
1000.92 hPa
Previous

2 hours ago

OIAA 190000Z 18002KT CAVOK 29/18 Q1001
Observed
Aug-19 @ 00:00 UTC
Wind
  • 180° at 2 KTS
Visibility
10,000+ meters
Flight Rules
VFR
Cloud Levels
  • Clear skies
Temperature
29°C / 84°F
Dewpoint
18°C / 64°F
Heat Index
29°C / 85°F
Humidity
51%
Altimeter
29.56" Hg
Pressure
1000.92 hPa
Previous

3 hours ago

OIAA 182300Z 16004KT CAVOK 30/17 Q1001
Observed
Aug-18 @ 23:00 UTC
Wind
  • 160° at 4 KTS
Visibility
10,000+ meters
Flight Rules
VFR
Cloud Levels
  • Clear skies
Temperature
30°C / 86°F
Dewpoint
17°C / 63°F
Heat Index
31°C / 87°F
Humidity
46%
Altimeter
29.56" Hg
Pressure
1000.92 hPa